Diamond Canakkale — TCTC5 — position and weather

sailwx.info

Track history (hours):
 
Tides and Currents Weather Stations Pressure Air Temp Water Temp Dewpoint Dewpoint Depression Visibility Wind Speed Wind Dir Waves Ship Positions

Diamond Canakkale

Last reported at 2018-Feb-05 14:31 UTC. Time now 2018-Feb-19 14:01 UTC.
Position N 04°43' W 001°36'.
Warning: this ship's position is 13 days out of date.

Length 113 m; draft 7 m.

Type: Cargo ship. MMSI: 271002564.

Date/timePositionNaut miles runAvg speedWind from/ knotsBaromVisibWave heightAir tempDewpointWater temp
2018-Feb-05 14:31N 04°43' W 001°36'0 0.1
2018-Feb-05 14:27N 04°43' W 001°36'0 0.0
2018-Feb-05 14:00N 04°43' W 001°36'0 0.0
2018-Feb-05 13:18N 04°43' W 001°36'13 0.3
2018-Feb-03 19:31N 04°53' W 001°44'0 0.0
2018-Feb-03 18:25N 04°53' W 001°44'0 0.0
2018-Feb-03 18:01N 04°53' W 001°44'0 0.0
2018-Feb-03 17:25N 04°53' W 001°44'  
2018-Jan-30 14:43N 07°25' W 014°02'312.2
2018-Jan-30 14:30N 07°26' W 014°05'1211.9
2018-Jan-30 13:27N 07°33' W 014°15'511.6
2018-Jan-30 13:00N 07°36' W 014°20'612.3
2018-Jan-30 12:30N 07°39' W 014°25'712.4
2018-Jan-30 11:55N 07°44' W 014°31'612.2
2018-Jan-30 11:28N 07°47' W 014°36'1212.0
2018-Jan-30 10:30N 07°53' W 014°45'3812.0
2018-Jan-30 07:19N 08°13' W 015°18'1311.9
2018-Jan-30 06:13N 08°20' W 015°29'312.1
2018-Jan-30 06:01N 08°21' W 015°31'612.1
2018-Jan-30 05:30N 08°26' W 015°36'612.0
2018-Jan-30 05:01N 08°30' W 015°40'611.9
2018-Jan-30 04:30N 08°34' W 015°44'612.1
2018-Jan-30 04:00N 08°38' W 015°49'611.9
2018-Jan-30 03:31N 08°41' W 015°54'611.8
2018-Jan-30 03:00N 08°44' W 015°59'611.8
2018-Jan-30 02:30N 08°49' W 016°03'2312.0
2018-Jan-30 00:34N 09°08' W 016°16'112.2
2018-Jan-30 00:30N 09°09' W 016°16'612.1
2018-Jan-30 00:00N 09°14' W 016°20'612.2
2018-Jan-29 23:30N 09°19' W 016°23'712.3
2018-Jan-29 22:58N 09°24' W 016°27'612.2
2018-Jan-29 22:29N 09°29' W 016°30'612.3
2018-Jan-29 22:00N 09°34' W 016°34'612.2
2018-Jan-29 21:29N 09°40' W 016°37'612.0
2018-Jan-29 20:59N 09°44' W 016°41'3612.2
2018-Jan-29 18:04N 10°15' W 016°59'312.3
2018-Jan-29 17:49N 10°18' W 017°00'412.2
2018-Jan-29 17:30N 10°21' W 017°02'812.2
2018-Jan-29 16:50N 10°28' W 017°07'412.3
2018-Jan-29 16:30N 10°31' W 017°09'7812.3
2018-Jan-29 10:10N 11°39' W 017°50'612.2
2018-Jan-29 09:41N 11°44' W 017°50'  
Track history (hours):
 
Tides and Currents Weather Stations Pressure Air Temp Water Temp Dewpoint Dewpoint Depression Visibility Wind Speed Wind Dir Waves Ship Positions

Diamond Canakkale

Last reported at 2018-Feb-05 14:31 UTC. Time now 2018-Feb-19 14:01 UTC.
Position N 04°43' W 001°36'.
Warning: this ship's position is 13 days out of date.

Length 113 m; draft 7 m.

Type: Cargo ship. MMSI: 271002564.

Date/timePositionNaut miles runAvg speedWind from/ knotsBaromVisibWave heightAir tempDewpointWater temp
2018-Feb-05 14:31N 04°43' W 001°36'0 0.1
2018-Feb-05 14:27N 04°43' W 001°36'0 0.0
2018-Feb-05 14:00N 04°43' W 001°36'0 0.0
2018-Feb-05 13:18N 04°43' W 001°36'13 0.3
2018-Feb-03 19:31N 04°53' W 001°44'0 0.0
2018-Feb-03 18:25N 04°53' W 001°44'0 0.0
2018-Feb-03 18:01N 04°53' W 001°44'0 0.0
2018-Feb-03 17:25N 04°53' W 001°44'  
2018-Jan-30 14:43N 07°25' W 014°02'312.2
2018-Jan-30 14:30N 07°26' W 014°05'1211.9
2018-Jan-30 13:27N 07°33' W 014°15'511.6
2018-Jan-30 13:00N 07°36' W 014°20'612.3
2018-Jan-30 12:30N 07°39' W 014°25'712.4
2018-Jan-30 11:55N 07°44' W 014°31'612.2
2018-Jan-30 11:28N 07°47' W 014°36'1212.0
2018-Jan-30 10:30N 07°53' W 014°45'3812.0
2018-Jan-30 07:19N 08°13' W 015°18'1311.9
2018-Jan-30 06:13N 08°20' W 015°29'312.1
2018-Jan-30 06:01N 08°21' W 015°31'612.1
2018-Jan-30 05:30N 08°26' W 015°36'612.0
2018-Jan-30 05:01N 08°30' W 015°40'611.9
2018-Jan-30 04:30N 08°34' W 015°44'612.1
2018-Jan-30 04:00N 08°38' W 015°49'611.9
2018-Jan-30 03:31N 08°41' W 015°54'611.8
2018-Jan-30 03:00N 08°44' W 015°59'611.8
2018-Jan-30 02:30N 08°49' W 016°03'2312.0
2018-Jan-30 00:34N 09°08' W 016°16'112.2
2018-Jan-30 00:30N 09°09' W 016°16'612.1
2018-Jan-30 00:00N 09°14' W 016°20'612.2
2018-Jan-29 23:30N 09°19' W 016°23'712.3
2018-Jan-29 22:58N 09°24' W 016°27'612.2
2018-Jan-29 22:29N 09°29' W 016°30'612.3
2018-Jan-29 22:00N 09°34' W 016°34'612.2
2018-Jan-29 21:29N 09°40' W 016°37'612.0
2018-Jan-29 20:59N 09°44' W 016°41'3612.2
2018-Jan-29 18:04N 10°15' W 016°59'312.3
2018-Jan-29 17:49N 10°18' W 017°00'412.2
2018-Jan-29 17:30N 10°21' W 017°02'812.2
2018-Jan-29 16:50N 10°28' W 017°07'412.3
2018-Jan-29 16:30N 10°31' W 017°09'7812.3
2018-Jan-29 10:10N 11°39' W 017°50'612.2
2018-Jan-29 09:41N 11°44' W 017°50'  

Dump ship's entire track history